Aviosuperficie Ivrea Montalto Dora

IT-0035 · 皮埃蒙特, 意大利

使用的METAR站距离机场35 km。
罗盘
风向 的 风向 140° Aviosuperficie Ivrea Montalto Dora 14/32
风: 2 kt, 1 beaufort

2 kt

改变
0 ft 1.000 2.000 3.000 4.000 5.000
Cloud Cloud Cloud Cloud
SCT 3.500
Cloud Cloud Cloud Cloud Cloud Cloud
BKN 5.000
METAR LIMF 010420Z 14002KT 9999 -RA SCT035 BKN050 08/08 Q1006

METAR Aviosuperficie Ivrea Montalto Dora - IT-0035

Aviosuperficie Ivrea Montalto Dora是,意大利中的小机场。 该机场位于纬度45,48623和经度7,84473。 该机场有一条跑道: 14/32. 这个机场没有ICAO代码,我们使用IT-0035作为参考。 机场在Milano FIR中。

该航空气象观测是针对Turin Airport在2024年3月1日 05:20, 当地时间进行的。

机场观察

风向为140°,速度为2 kt。

可见度为10 km 或者更多。

有疏云,零星散落的云朵在3.500 ft的高度 和 碎云在5.000 ft的高度。 破损或更高的上限为5.000 ft。

当前天气为光 雨。 温度为8 °C,阵风为7 °C。 露点为8 °C,相对湿度为100%。 海平面上的气压为1006 hPa (QNH)。

白天

今天,太阳从07:05升起,在18:15降落。 这适用于Aviosuperficie Ivrea Montalto Dora,世界夏令时可能有所不同。 当地时间与世界标准时间之间的时差为+1 小时。 当前,没有夏令时有效。

公司介绍

我们没有关于这个机场的公司信息。

体会

到Vliegles.nl去找飞行课程,跳伞和其他飞行体验。 浏览页面,了解Aviosuperficie Ivrea Montalto Dora附近所有可用的活动。 你也可以使用搜索功能来寻找你所在地附近的特定飞行课程、跳伞或其他飞行体验。

跑道

Id 标题 侧风 逆风 侧风 %
14/32 143°-323° 2 kt 5 %

逆风成分最大的方向会被突出显示,并用于横风计算。 这并不一定意味着这个方向在使用。

乌云

3.500 ft SCT 疏云,零星散落的云朵
5.000 ft BKN 碎云

温度 & 天气

天气 光 雨
温度 8 °C
露点 8 °C
相对湿度 100%
风寒 7 °C
Kp-index 3 (0-9)

白天

日出
07:06 (1:11)
中午
12:41
日落
18:16

小工具

你想在你的网站上有一个关于Aviosuperficie Ivrea Montalto Dora的当前航空天气(METAR)的小部件吗?

显示HTML代码
?>